sensor_id;sensor_type;location;lat;lon;timestamp;pressure;altitude;pressure_sealevel;temperature;humidity
45789;BME280;31492;54.856;26.318;2022-09-17T02:14:03;981.8;;;9.9;100
45789;BME280;31492;54.856;26.318;2022-09-17T02:19:12;981.6;;;9.9;100
45789;BME280;31492;54.856;26.318;2022-09-17T02:24:06;981.7;;;9.9;100
45789;BME280;31492;54.856;26.318;2022-09-17T02:29:06;981.6;;;9.9;100
45789;BME280;31492;54.856;26.318;2022-09-17T02:34:00;981.6;;;9.9;100
45789;BME280;31492;54.856;26.318;2022-09-17T02:39:08;981.7;;;9.9;100
45789;BME280;31492;54.856;26.318;2022-09-17T02:44:03;981.7;;;9.9;100
45789;BME280;31492;54.856;26.318;2022-09-17T02:48:55;981.8;;;10;100
45789;BME280;31492;54.856;26.318;2022-09-17T02:58:49;981.9;;;9.9;100
45789;BME280;31492;54.856;26.318;2022-09-17T03:04:02;981.9;;;9.9;100
45789;BME280;31492;54.856;26.318;2022-09-17T03:08:58;982;;;9.9;100
45789;BME280;31492;54.856;26.318;2022-09-17T03:14:00;982;;;9.9;100
45789;BME280;31492;54.856;26.318;2022-09-17T03:19:02;982;;;9.9;100
45789;BME280;31492;54.856;26.318;2022-09-17T03:24:00;982;;;10;100
45789;BME280;31492;54.856;26.318;2022-09-17T03:29:08;982;;;9.9;100
45789;BME280;31492;54.856;26.318;2022-09-17T03:34:00;982;;;9.9;100
45789;BME280;31492;54.856;26.318;2022-09-17T03:39:00;982;;;9.9;100
45789;BME280;31492;54.856;26.318;2022-09-17T03:44:00;982;;;9.9;100
45789;BME280;31492;54.856;26.318;2022-09-17T03:49:02;982;;;9.9;100
45789;BME280;31492;54.856;26.318;2022-09-17T03:54:10;982;;;9.8;100
45789;BME280;31492;54.856;26.318;2022-09-17T03:59:00;982;;;9.8;100
45789;BME280;31492;54.856;26.318;2022-09-17T04:04:00;982;;;9.8;100
45789;BME280;31492;54.856;26.318;2022-09-17T04:09:00;982;;;9.8;100
45789;BME280;31492;54.856;26.318;2022-09-17T04:14:00;982;;;9.7;100
45789;BME280;31492;54.856;26.318;2022-09-17T04:18:54;982;;;9.7;100
45789;BME280;31492;54.856;26.318;2022-09-17T04:23:58;982;;;9.8;100
45789;BME280;31492;54.856;26.318;2022-09-17T04:29:02;982.1;;;9.8;100
45789;BME280;31492;54.856;26.318;2022-09-17T04:34:08;982;;;9.9;100
45789;BME280;31492;54.856;26.318;2022-09-17T04:39:02;982;;;9.9;100
45789;BME280;31492;54.856;26.318;2022-09-17T04:44:08;982;;;9.9;100
45789;BME280;31492;54.856;26.318;2022-09-17T04:49:08;982;;;10;100
45789;BME280;31492;54.856;26.318;2022-09-17T04:54:02;982;;;10;100
45789;BME280;31492;54.856;26.318;2022-09-17T04:59:00;982;;;10;100
45789;BME280;31492;54.856;26.318;2022-09-17T05:04:02;982;;;10;100
45789;BME280;31492;54.856;26.318;2022-09-17T05:09:08;982.1;;;10.1;100
45789;BME280;31492;54.856;26.318;2022-09-17T05:14:02;982.1;;;10.2;100
45789;BME280;31492;54.856;26.318;2022-09-17T05:19:02;982.1;;;10.2;100
45789;BME280;31492;54.856;26.318;2022-09-17T05:24:00;982.1;;;10.2;100
45789;BME280;31492;54.856;26.318;2022-09-17T05:29:00;982.2;;;10.2;100
45789;BME280;31492;54.856;26.318;2022-09-17T05:34:00;982.2;;;10.2;100
45789;BME280;31492;54.856;26.318;2022-09-17T05:39:00;982.3;;;10.3;100
45789;BME280;31492;54.856;26.318;2022-09-17T05:44:00;982.2;;;10.3;100
45789;BME280;31492;54.856;26.318;2022-09-17T05:49:02;982.1;;;10.4;100
45789;BME280;31492;54.856;26.318;2022-09-17T05:54:02;982.2;;;10.5;100
45789;BME280;31492;54.856;26.318;2022-09-17T05:59:06;982.2;;;10.6;100
45789;BME280;31492;54.856;26.318;2022-09-17T06:04:02;982.2;;;10.7;100
45789;BME280;31492;54.856;26.318;2022-09-17T06:09:00;982.2;;;10.8;100
45789;BME280;31492;54.856;26.318;2022-09-17T06:14:00;982.2;;;10.9;100
45789;BME280;31492;54.856;26.318;2022-09-17T06:19:00;982.2;;;11.1;100
45789;BME280;31492;54.856;26.318;2022-09-17T06:24:09;982.2;;;11;100
45789;BME280;31492;54.856;26.318;2022-09-17T06:28:58;982.2;;;10.9;100
45789;BME280;31492;54.856;26.318;2022-09-17T06:34:02;982.2;;;11.1;100
45789;BME280;31492;54.856;26.318;2022-09-17T06:39:02;982.1;;;11.3;100
45789;BME280;31492;54.856;26.318;2022-09-17T06:43:58;982.1;;;11.5;100
45789;BME280;31492;54.856;26.318;2022-09-17T06:49:02;982.2;;;11.7;100
45789;BME280;31492;54.856;26.318;2022-09-17T06:53:59;982.2;;;11.9;100
45789;BME280;31492;54.856;26.318;2022-09-17T06:59:06;982.3;;;12.2;100
45789;BME280;31492;54.856;26.318;2022-09-17T07:03:56;982.3;;;12.5;100
45789;BME280;31492;54.856;26.318;2022-09-17T07:09:02;982.3;;;12.5;100
45789;BME280;31492;54.856;26.318;2022-09-17T07:14:08;982.4;;;12.6;100
45789;BME280;31492;54.856;26.318;2022-09-17T07:19:02;982.4;;;12.7;100
45789;BME280;31492;54.856;26.318;2022-09-17T07:24:08;982.4;;;12.6;100
45789;BME280;31492;54.856;26.318;2022-09-17T07:29:00;982.5;;;12.6;100
45789;BME280;31492;54.856;26.318;2022-09-17T07:34:00;982.6;;;12.7;100
45789;BME280;31492;54.856;26.318;2022-09-17T07:39:08;982.6;;;12.8;100
45789;BME280;31492;54.856;26.318;2022-09-17T07:44:00;982.6;;;12.7;100
45789;BME280;31492;54.856;26.318;2022-09-17T07:49:00;982.7;;;12.6;100
45789;BME280;31492;54.856;26.318;2022-09-17T07:54:02;982.7;;;12.5;100
45789;BME280;31492;54.856;26.318;2022-09-17T07:59:02;982.6;;;12.6;100
45789;BME280;31492;54.856;26.318;2022-09-17T08:04:00;982.6;;;13.4;100
45789;BME280;31492;54.856;26.318;2022-09-17T08:09:03;982.6;;;13.7;100
45789;BME280;31492;54.856;26.318;2022-09-17T08:14:13;982.6;;;13.4;100
45789;BME280;31492;54.856;26.318;2022-09-17T08:18:58;982.7;;;13.3;100
45789;BME280;31492;54.856;26.318;2022-09-17T08:24:00;982.6;;;13.3;100
45789;BME280;31492;54.856;26.318;2022-09-17T08:28:58;982.6;;;14.7;100
45789;BME280;31492;54.856;26.318;2022-09-17T08:34:07;982.5;;;15.5;100
45789;BME280;31492;54.856;26.318;2022-09-17T08:38:55;982.7;;;16.1;100
45789;BME280;31492;54.856;26.318;2022-09-17T08:44:10;982.8;;;15.2;100
45789;BME280;31492;54.856;26.318;2022-09-17T08:48:34;982.8;;;15.1;100
45789;BME280;31492;54.856;26.318;2022-09-17T08:54:11;982.7;;;15.5;100
45789;BME280;31492;54.856;26.318;2022-09-17T08:59:10;982.8;;;15.6;100
45789;BME280;31492;54.856;26.318;2022-09-17T09:09:04;982.9;;;14.8;100
45789;BME280;31492;54.856;26.318;2022-09-17T09:14:05;982.9;;;14.3;100
45789;BME280;31492;54.856;26.318;2022-09-17T09:20:12;982.9;;;14;100
45789;BME280;31492;54.856;26.318;2022-09-17T09:24:08;982.9;;;14.6;100
45789;BME280;31492;54.856;26.318;2022-09-17T09:29:12;982.8;;;15.5;100
45789;BME280;31492;54.856;26.318;2022-09-17T09:34:02;982.7;;;16.3;100
45789;BME280;31492;54.856;26.318;2022-09-17T09:39:02;982.7;;;16.4;100
45789;BME280;31492;54.856;26.318;2022-09-17T09:44:09;982.8;;;15.5;100
45789;BME280;31492;54.856;26.318;2022-09-17T09:49:07;982.8;;;15.4;100
45789;BME280;31492;54.856;26.318;2022-09-17T09:54:20;982.9;;;15.2;100
45789;BME280;31492;54.856;26.318;2022-09-17T09:59:00;982.9;;;14.8;100
45789;BME280;31492;54.856;26.318;2022-09-17T10:04:05;982.9;;;16;100
45789;BME280;31492;54.856;26.318;2022-09-17T10:09:08;982.8;;;17.5;100
45789;BME280;31492;54.856;26.318;2022-09-17T10:14:20;982.8;;;18.7;90.2
45789;BME280;31492;54.856;26.318;2022-09-17T10:19:16;982.8;;;19.2;86.7
45789;BME280;31492;54.856;26.318;2022-09-17T10:24:03;982.8;;;19.9;74.7
45789;BME280;31492;54.856;26.318;2022-09-17T10:29:04;982.9;;;19.5;83.5
45789;BME280;31492;54.856;26.318;2022-09-17T10:34:02;982.9;;;18.7;87.5
45789;BME280;31492;54.856;26.318;2022-09-17T10:39:35;983.1;;;17.7;97.9
45789;BME280;31492;54.856;26.318;2022-09-17T10:43:54;983.1;;;16.8;100
45789;BME280;31492;54.856;26.318;2022-09-17T10:49:08;983.2;;;17;100
45789;BME280;31492;54.856;26.318;2022-09-17T10:58:23;983.2;;;17.9;100
45789;BME280;31492;54.856;26.318;2022-09-17T11:04:01;983.3;;;17.3;100
45789;BME280;31492;54.856;26.318;2022-09-17T11:13:55;983.4;;;16.8;100
45789;BME280;31492;54.856;26.318;2022-09-17T11:19:12;983.4;;;16.8;100
45789;BME280;31492;54.856;26.318;2022-09-17T11:24:29;983.4;;;16.8;100
45789;BME280;31492;54.856;26.318;2022-09-17T11:34:04;983.5;;;16.6;100
45789;BME280;31492;54.856;26.318;2022-09-17T11:39:06;983.5;;;16.4;100
45789;BME280;31492;54.856;26.318;2022-09-17T11:44:09;983.5;;;16.4;100
45789;BME280;31492;54.856;26.318;2022-09-17T11:48:21;983.5;;;16.4;100
45789;BME280;31492;54.856;26.318;2022-09-17T11:54:34;983.5;;;16.3;100
45789;BME280;31492;54.856;26.318;2022-09-17T11:59:19;983.5;;;16.1;100
45789;BME280;31492;54.856;26.318;2022-09-17T12:09:14;983.5;;;16.2;100
45789;BME280;31492;54.856;26.318;2022-09-17T12:14:22;983.5;;;16.6;100
45789;BME280;31492;54.856;26.318;2022-09-17T12:19:12;983.5;;;16.6;100
45789;BME280;31492;54.856;26.318;2022-09-17T12:29:14;983.5;;;16.7;100
45789;BME280;31492;54.856;26.318;2022-09-17T12:44:17;983.5;;;16.5;100
45789;BME280;31492;54.856;26.318;2022-09-17T12:49:08;983.5;;;16.4;100
45789;BME280;31492;54.856;26.318;2022-09-17T12:54:16;983.5;;;16.2;100
45789;BME280;31492;54.856;26.318;2022-09-17T12:59:11;983.5;;;16.1;100
45789;BME280;31492;54.856;26.318;2022-09-17T13:04:12;983.5;;;16.2;100
45789;BME280;31492;54.856;26.318;2022-09-17T13:09:09;983.5;;;16.1;100
45789;BME280;31492;54.856;26.318;2022-09-17T13:14:08;983.5;;;16;100
45789;BME280;31492;54.856;26.318;2022-09-17T13:24:04;983.6;;;15.9;100
45789;BME280;31492;54.856;26.318;2022-09-17T13:29:04;983.7;;;16.1;100
45789;BME280;31492;54.856;26.318;2022-09-17T13:34:37;983.7;;;16.2;100
45789;BME280;31492;54.856;26.318;2022-09-17T13:38:56;983.7;;;16.1;100
45789;BME280;31492;54.856;26.318;2022-09-17T13:44:04;983.8;;;15.9;100
45789;BME280;31492;54.856;26.318;2022-09-17T13:49:02;983.8;;;15.7;100
45789;BME280;31492;54.856;26.318;2022-09-17T13:54:05;983.9;;;15.8;100
45789;BME280;31492;54.856;26.318;2022-09-17T13:59:09;983.9;;;15.8;100
45789;BME280;31492;54.856;26.318;2022-09-17T14:03:48;983.8;;;15.9;100
45789;BME280;31492;54.856;26.318;2022-09-17T14:09:25;983.8;;;15.9;100
45789;BME280;31492;54.856;26.318;2022-09-17T14:19:40;983.9;;;15.7;100
45789;BME280;31492;54.856;26.318;2022-09-17T14:24:02;984;;;15.5;100
45789;BME280;31492;54.856;26.318;2022-09-17T14:29:19;984;;;15.6;100
45789;BME280;31492;54.856;26.318;2022-09-17T14:34:04;984;;;15.5;100
45789;BME280;31492;54.856;26.318;2022-09-17T14:39:09;984.1;;;15.3;100
45789;BME280;31492;54.856;26.318;2022-09-17T14:44:02;984.1;;;15.2;100
45789;BME280;31492;54.856;26.318;2022-09-17T14:49:24;984;;;15.1;100
45789;BME280;31492;54.856;26.318;2022-09-17T14:54:07;984;;;15.1;100
45789;BME280;31492;54.856;26.318;2022-09-17T14:59:04;984;;;15.1;100
45789;BME280;31492;54.856;26.318;2022-09-17T15:04:19;984;;;15;100
45789;BME280;31492;54.856;26.318;2022-09-17T15:09:00;984;;;14.9;100
45789;BME280;31492;54.856;26.318;2022-09-17T15:14:13;983.9;;;14.9;100
45789;BME280;31492;54.856;26.318;2022-09-17T15:19:01;983.9;;;14.9;100
45789;BME280;31492;54.856;26.318;2022-09-17T15:24:25;983.9;;;14.7;100
45789;BME280;31492;54.856;26.318;2022-09-17T15:29:04;984;;;14.6;100
45789;BME280;31492;54.856;26.318;2022-09-17T15:34:04;984.1;;;14.4;100
45789;BME280;31492;54.856;26.318;2022-09-17T15:44:26;984.1;;;14.2;100
45789;BME280;31492;54.856;26.318;2022-09-17T15:49:23;984.2;;;14.2;100
45789;BME280;31492;54.856;26.318;2022-09-17T15:54:05;984.2;;;14.2;100
45789;BME280;31492;54.856;26.318;2022-09-17T15:59:04;984.3;;;14;100
45789;BME280;31492;54.856;26.318;2022-09-17T16:10:08;984.3;;;13.9;100
45789;BME280;31492;54.856;26.318;2022-09-17T16:14:10;984.3;;;13.8;100
45789;BME280;31492;54.856;26.318;2022-09-17T16:19:04;984.3;;;13.6;100
45789;BME280;31492;54.856;26.318;2022-09-17T16:24:08;984.3;;;13.5;100
45789;BME280;31492;54.856;26.318;2022-09-17T16:29:11;984.3;;;13.4;100
45789;BME280;31492;54.856;26.318;2022-09-17T16:33:48;984.4;;;13.3;100
45789;BME280;31492;54.856;26.318;2022-09-17T16:38:58;984.5;;;13.2;100
45789;BME280;31492;54.856;26.318;2022-09-17T16:44:02;984.5;;;13.1;100
45789;BME280;31492;54.856;26.318;2022-09-17T16:49:02;984.6;;;13.1;100
45789;BME280;31492;54.856;26.318;2022-09-17T16:54:04;984.6;;;13.1;100
45789;BME280;31492;54.856;26.318;2022-09-17T16:59:02;984.7;;;13;100
45789;BME280;31492;54.856;26.318;2022-09-17T17:03:58;984.8;;;13;100
45789;BME280;31492;54.856;26.318;2022-09-17T17:09:02;984.8;;;12.9;100
45789;BME280;31492;54.856;26.318;2022-09-17T17:14:02;984.9;;;12.8;100
45789;BME280;31492;54.856;26.318;2022-09-17T17:19:10;984.9;;;12.7;100
45789;BME280;31492;54.856;26.318;2022-09-17T17:24:04;984.9;;;12.7;100
45789;BME280;31492;54.856;26.318;2022-09-17T17:29:10;984.9;;;12.6;100
45789;BME280;31492;54.856;26.318;2022-09-17T17:34:02;984.9;;;12.6;100
45789;BME280;31492;54.856;26.318;2022-09-17T17:39:04;984.9;;;12.5;100
45789;BME280;31492;54.856;26.318;2022-09-17T17:44:09;984.9;;;12.5;100
45789;BME280;31492;54.856;26.318;2022-09-17T17:49:03;984.9;;;12.5;100
45789;BME280;31492;54.856;26.318;2022-09-17T17:53:40;985;;;12.5;100
45789;BME280;31492;54.856;26.318;2022-09-17T17:59:03;985;;;12.4;100
45789;BME280;31492;54.856;26.318;2022-09-17T18:04:01;985;;;12.3;100
45789;BME280;31492;54.856;26.318;2022-09-17T18:09:03;985;;;12.2;100
45789;BME280;31492;54.856;26.318;2022-09-17T18:14:03;985.1;;;12.2;100
45789;BME280;31492;54.856;26.318;2022-09-17T18:19:10;985.1;;;12.2;100
45789;BME280;31492;54.856;26.318;2022-09-17T18:24:03;985.2;;;12.3;100
45789;BME280;31492;54.856;26.318;2022-09-17T18:28:53;985.2;;;12.3;100
45789;BME280;31492;54.856;26.318;2022-09-17T18:34:10;985.2;;;12.3;100
45789;BME280;31492;54.856;26.318;2022-09-17T18:39:09;985.2;;;12.3;100
45789;BME280;31492;54.856;26.318;2022-09-17T18:44:11;985.1;;;12.2;100
45789;BME280;31492;54.856;26.318;2022-09-17T18:49:05;985.2;;;12.2;100
45789;BME280;31492;54.856;26.318;2022-09-17T18:54:11;985.4;;;12.2;100
45789;BME280;31492;54.856;26.318;2022-09-17T18:59:09;985.4;;;12.1;100
45789;BME280;31492;54.856;26.318;2022-09-17T19:04:01;985.5;;;12.1;100
45789;BME280;31492;54.856;26.318;2022-09-17T19:08:47;985.5;;;11.9;100
45789;BME280;31492;54.856;26.318;2022-09-17T19:14:05;985.5;;;11.9;100
45789;BME280;31492;54.856;26.318;2022-09-17T19:19:03;985.4;;;12;100
45789;BME280;31492;54.856;26.318;2022-09-17T19:24:05;985.4;;;11.9;100
45789;BME280;31492;54.856;26.318;2022-09-17T19:28:50;985.4;;;11.9;100
45789;BME280;31492;54.856;26.318;2022-09-17T19:34:07;985.4;;;11.9;100
45789;BME280;31492;54.856;26.318;2022-09-17T19:39:05;985.3;;;11.8;100
45789;BME280;31492;54.856;26.318;2022-09-17T19:44:05;985.3;;;11.7;100
45789;BME280;31492;54.856;26.318;2022-09-17T19:49:09;985.3;;;11.8;100
45789;BME280;31492;54.856;26.318;2022-09-17T19:54:01;985.3;;;11.7;100
45789;BME280;31492;54.856;26.318;2022-09-17T19:59:09;985.4;;;11.7;100
45789;BME280;31492;54.856;26.318;2022-09-17T20:04:05;985.3;;;11.6;100
45789;BME280;31492;54.856;26.318;2022-09-17T20:09:01;985.3;;;11.8;100
45789;BME280;31492;54.856;26.318;2022-09-17T20:14:09;985.3;;;11.7;100
45789;BME280;31492;54.856;26.318;2022-09-17T20:19:13;985.2;;;11.7;100
45789;BME280;31492;54.856;26.318;2022-09-17T20:24:01;985;;;11.8;100
45789;BME280;31492;54.856;26.318;2022-09-17T20:29:05;985;;;11.8;100
45789;BME280;31492;54.856;26.318;2022-09-17T20:34:05;985;;;11.7;100
45789;BME280;31492;54.856;26.318;2022-09-17T20:39:04;985.1;;;11.6;100
45789;BME280;31492;54.856;26.318;2022-09-17T20:44:05;985.1;;;11.6;100
45789;BME280;31492;54.856;26.318;2022-09-17T20:49:01;985.2;;;11.5;100
45789;BME280;31492;54.856;26.318;2022-09-17T20:54:03;985.2;;;11.5;100
45789;BME280;31492;54.856;26.318;2022-09-17T20:59:04;985.2;;;11.3;100
45789;BME280;31492;54.856;26.318;2022-09-17T21:03:50;985.3;;;11.2;100
45789;BME280;31492;54.856;26.318;2022-09-17T21:09:09;985.4;;;11.1;100
45789;BME280;31492;54.856;26.318;2022-09-17T21:14:05;985.3;;;11;100
45789;BME280;31492;54.856;26.318;2022-09-17T21:19:06;985.3;;;10.9;100
45789;BME280;31492;54.856;26.318;2022-09-17T21:24:04;985.3;;;10.9;100
45789;BME280;31492;54.856;26.318;2022-09-17T21:29:05;985.4;;;10.6;100
45789;BME280;31492;54.856;26.318;2022-09-17T21:34:11;985.4;;;10.4;100
45789;BME280;31492;54.856;26.318;2022-09-17T21:38:49;985.4;;;10.4;100
45789;BME280;31492;54.856;26.318;2022-09-17T21:44:01;985.4;;;10.4;100
45789;BME280;31492;54.856;26.318;2022-09-17T21:49:05;985.4;;;10.3;100
45789;BME280;31492;54.856;26.318;2022-09-17T21:54:06;985.3;;;10.1;100
45789;BME280;31492;54.856;26.318;2022-09-17T21:59:02;985.3;;;10;100
45789;BME280;31492;54.856;26.318;2022-09-17T22:03:57;985.3;;;9.9;100
45789;BME280;31492;54.856;26.318;2022-09-17T22:09:06;985.4;;;9.9;100
45789;BME280;31492;54.856;26.318;2022-09-17T22:14:10;985.4;;;9.8;100
45789;BME280;31492;54.856;26.318;2022-09-17T22:19:03;985.4;;;9.5;100
45789;BME280;31492;54.856;26.318;2022-09-17T22:24:09;985.4;;;9.4;100
45789;BME280;31492;54.856;26.318;2022-09-17T22:29:10;985.4;;;9.4;100
45789;BME280;31492;54.856;26.318;2022-09-17T22:34:06;985.5;;;9.2;100
45789;BME280;31492;54.856;26.318;2022-09-17T22:39:01;985.5;;;9.2;100
45789;BME280;31492;54.856;26.318;2022-09-17T22:44:00;985.5;;;9.2;100
